Time;durP1;ratioP1;P1;durP2;ratioP2;P2;SDS_P1;SDS_P2;PMS_P1;PMS_P2;Temp;Humidity;BMP_temperature;BMP_pressure;BME280_temperature;BME280_humidity;BME280_pressure;Samples;Min_cycle;Max_cycle;Signal;HPM_P1;HPM_P2
2021/12/11 00:02:10;;;;;;;21.97;11.63;;;-0.20;1.00;;;;;;4991143;28;20491;-55
2021/12/11 00:04:39;;;;;;;20.07;10.77;;;-0.20;1.00;;;;;;4991505;28;20482;-57
2021/12/11 00:07:11;;;;;;;18.23;10.57;;;-0.20;1.00;;;;;;4991359;28;20979;-57
2021/12/11 00:09:43;;;;;;;23.40;12.30;;;-0.20;1.00;;;;;;4991552;28;20446;-56
2021/12/11 00:12:15;;;;;;;23.33;11.00;;;-0.30;1.00;;;;;;4991063;28;20504;-58
2021/12/11 00:14:45;;;;;;;17.37;10.77;;;-0.30;1.00;;;;;;4991402;28;20998;-58
2021/12/11 00:17:19;;;;;;;23.17;12.20;;;-0.20;1.00;;;;;;4990944;28;21001;-58
2021/12/11 00:19:46;;;;;;;23.80;11.90;;;-0.20;1.00;;;;;;4991246;28;20455;-57
2021/12/11 00:22:15;;;;;;;17.70;11.07;;;-0.20;1.00;;;;;;4990548;28;20986;-58
2021/12/11 00:24:45;;;;;;;22.63;12.43;;;-0.20;1.00;;;;;;4993945;28;20483;-56
2021/12/11 00:27:14;;;;;;;19.93;11.70;;;-0.30;1.00;;;;;;4994104;28;20443;-58
2021/12/11 00:29:41;;;;;;;19.47;12.47;;;-0.30;1.00;;;;;;4994185;28;20473;-56
2021/12/11 00:32:10;;;;;;;20.57;12.13;;;-0.30;1.00;;;;;;4993936;28;20830;-57
2021/12/11 00:34:39;;;;;;;22.80;12.17;;;-0.30;1.00;;;;;;4995648;28;21026;-60
2021/12/11 00:37:09;;;;;;;22.63;12.97;;;-0.30;1.00;;;;;;4996296;28;20451;-57
2021/12/11 00:39:46;;;;;;;29.77;15.27;;;-0.30;1.00;;;;;;4995403;28;20480;-57
2021/12/11 00:42:13;;;;;;;24.53;13.87;;;-0.20;1.00;;;;;;4991332;28;20850;-57
2021/12/11 00:44:44;;;;;;;21.90;12.40;;;-0.30;1.00;;;;;;4990953;28;20488;-57
2021/12/11 00:47:14;;;;;;;20.90;11.63;;;-0.30;1.00;;;;;;4990860;28;20446;-57
2021/12/11 00:49:50;;;;;;;23.13;13.20;;;-0.30;1.00;;;;;;4990512;28;20965;-58
2021/12/11 00:52:17;;;;;;;21.67;13.10;;;-0.20;1.00;;;;;;4990359;28;20447;-55
2021/12/11 00:54:46;;;;;;;19.90;12.03;;;-0.20;1.00;;;;;;4990495;28;20982;-51
2021/12/11 00:57:20;;;;;;;25.60;13.57;;;-0.20;1.00;;;;;;4990881;28;20455;-54
2021/12/11 00:59:47;;;;;;;21.17;12.60;;;-0.20;1.00;;;;;;4990414;28;20458;-55
2021/12/11 01:02:14;;;;;;;22.40;12.90;;;-0.30;1.00;;;;;;4990061;28;20487;-56
2021/12/11 01:04:42;;;;;;;22.43;13.53;;;-0.20;1.00;;;;;;4990454;28;20479;-53
2021/12/11 01:07:17;;;;;;;26.87;13.37;;;-0.20;1.00;;;;;;4990352;28;20459;-55
2021/12/11 01:09:48;;;;;;;25.47;13.73;;;-0.30;1.00;;;;;;4990636;28;20482;-57
2021/12/11 01:12:22;;;;;;;22.63;13.43;;;-0.30;1.00;;;;;;4990544;28;20459;-53
2021/12/11 01:14:54;;;;;;;27.33;14.50;;;-0.30;1.00;;;;;;4990264;28;20986;-58
2021/12/11 01:17:30;;;;;;;28.17;12.80;;;-0.30;1.00;;;;;;4990461;28;20819;-57
2021/12/11 01:20:05;;;;;;;23.33;14.00;;;-0.30;1.00;;;;;;4990489;28;20450;-55
2021/12/11 01:22:36;;;;;;;21.23;13.17;;;-0.30;1.00;;;;;;4989707;28;20487;-57
2021/12/11 01:25:12;;;;;;;22.40;14.10;;;-0.30;1.00;;;;;;4990095;28;20524;-54
2021/12/11 01:27:43;;;;;;;26.23;14.13;;;-0.30;1.00;;;;;;4990336;28;20462;-57
2021/12/11 01:30:13;;;;;;;28.77;15.17;;;-0.20;1.00;;;;;;4989971;28;20940;-57
2021/12/11 01:32:40;;;;;;;22.53;13.63;;;-0.20;1.00;;;;;;4990097;28;20455;-57
2021/12/11 01:35:10;;;;;;;25.53;14.50;;;-0.20;1.00;;;;;;4989930;28;20532;-57
2021/12/11 01:37:38;;;;;;;27.00;13.93;;;-0.10;1.00;;;;;;4989916;28;20820;-55
2021/12/11 01:40:10;;;;;;;22.37;13.63;;;-0.20;1.00;;;;;;4990029;28;20840;-55
2021/12/11 01:42:39;;;;;;;22.57;14.00;;;-0.20;1.00;;;;;;4989653;28;21220;-57
2021/12/11 01:45:09;;;;;;;22.17;14.13;;;-0.20;1.00;;;;;;4990049;28;20491;-58
2021/12/11 01:47:37;;;;;;;24.33;14.53;;;-0.10;1.00;;;;;;4990264;28;20456;-57
2021/12/11 01:50:11;;;;;;;29.07;14.30;;;-0.20;1.00;;;;;;4989945;28;20527;-53
2021/12/11 01:52:41;;;;;;;27.17;15.00;;;-0.10;1.00;;;;;;4989729;28;20455;-57
2021/12/11 01:55:12;;;;;;;25.50;14.53;;;-0.10;1.00;;;;;;4989956;28;20471;-56
2021/12/11 01:57:39;;;;;;;24.13;14.40;;;-0.10;1.00;;;;;;4990043;28;20474;-58
2021/12/11 02:00:14;;;;;;;23.50;13.03;;;-0.10;1.00;;;;;;4989553;28;20474;-57
2021/12/11 02:02:44;;;;;;;20.53;12.73;;;0.00;1.00;;;;;;4989102;28;20482;-58
2021/12/11 02:05:13;;;;;;;23.13;13.27;;;-0.10;1.00;;;;;;4989710;28;20478;-58
2021/12/11 02:07:43;;;;;;;22.30;13.50;;;0.00;1.00;;;;;;4989757;28;20455;-57
2021/12/11 02:10:19;;;;;;;24.97;13.67;;;-0.10;1.00;;;;;;4989797;28;20481;-58
2021/12/11 02:12:46;;;;;;;24.90;14.50;;;-0.10;1.00;;;;;;4989255;28;20455;-58
2021/12/11 02:15:16;;;;;;;24.93;13.57;;;-0.10;1.00;;;;;;4989855;28;20471;-58
2021/12/11 02:17:47;;;;;;;25.40;15.13;;;-0.10;1.00;;;;;;4991755;28;20462;-56
2021/12/11 02:20:20;;;;;;;22.73;13.97;;;-0.10;1.00;;;;;;4993409;28;20454;-57
2021/12/11 02:22:52;;;;;;;27.40;14.90;;;-0.20;1.00;;;;;;4992600;28;20835;-56
2021/12/11 02:25:23;;;;;;;23.87;13.80;;;-0.20;1.00;;;;;;4992621;28;20481;-57
2021/12/11 02:27:53;;;;;;;24.53;14.03;;;-0.30;1.00;;;;;;4993742;28;20523;-57
2021/12/11 02:30:24;;;;;;;25.27;14.20;;;-0.30;1.00;;;;;;4993431;28;20826;-58
2021/12/11 02:33:03;;;;;;;25.37;14.10;;;-0.30;1.00;;;;;;4993509;28;20839;-57
2021/12/11 02:35:37;;;;;;;26.37;14.37;;;-0.40;1.00;;;;;;4993359;28;20528;-58
2021/12/11 02:38:12;;;;;;;24.97;14.67;;;-0.50;1.00;;;;;;4992878;28;20480;-56
2021/12/11 02:40:43;;;;;;;34.47;16.40;;;-0.60;1.00;;;;;;4992825;28;20450;-56
2021/12/11 02:43:16;;;;;;;31.17;15.27;;;-0.70;1.00;;;;;;4992146;28;21047;-55
2021/12/11 02:45:46;;;;;;;25.17;14.90;;;-0.70;1.00;;;;;;4992251;28;20506;-58
2021/12/11 02:48:17;;;;;;;38.60;16.37;;;-0.60;12.40;;;;;;4992498;28;20451;-57
2021/12/11 02:50:49;;;;;;;39.97;15.57;;;-0.60;18.50;;;;;;4992499;28;20446;-57
2021/12/11 02:53:21;;;;;;;42.63;15.90;;;-0.60;23.60;;;;;;4992470;28;20450;-52
2021/12/11 02:55:54;;;;;;;39.17;14.97;;;-0.60;28.70;;;;;;4992197;28;20987;-56
2021/12/11 02:58:25;;;;;;;38.37;15.90;;;-0.70;31.30;;;;;;4992635;28;20504;-53
2021/12/11 03:00:57;;;;;;;30.53;15.47;;;-0.70;35.20;;;;;;4992502;28;20529;-58
2021/12/11 03:03:28;;;;;;;29.90;14.40;;;-0.70;41.50;;;;;;4992047;28;20494;-56
2021/12/11 03:06:02;;;;;;;31.30;15.40;;;-0.80;45.90;;;;;;4992322;28;20454;-58
2021/12/11 03:08:30;;;;;;;37.90;15.40;;;-0.70;50.90;;;;;;4992152;28;20995;-52
2021/12/11 03:11:10;;;;;;;39.93;15.77;;;-0.80;52.20;;;;;;4992533;28;20447;-56
2021/12/11 03:13:38;;;;;;;29.97;16.07;;;-0.90;55.80;;;;;;4991836;28;20451;-55
2021/12/11 03:16:06;;;;;;;33.93;15.63;;;-0.80;62.30;;;;;;4992264;28;20455;-57
2021/12/11 03:18:33;;;;;;;33.47;15.60;;;-0.80;66.40;;;;;;4992114;28;20806;-55
2021/12/11 03:21:00;;;;;;;29.30;15.60;;;-0.90;69.40;;;;;;4992059;28;20451;-55
2021/12/11 03:23:27;;;;;;;34.60;16.67;;;-0.80;82.90;;;;;;4991529;28;20482;-55
2021/12/11 03:25:55;;;;;;;37.87;16.67;;;-0.80;91.40;;;;;;4991736;28;20451;-55
2021/12/11 03:28:22;;;;;;;35.03;16.67;;;-0.80;92.30;;;;;;4990796;28;20490;-58
2021/12/11 03:30:57;;;;;;;35.13;16.87;;;-0.80;97.40;;;;;;4991939;28;20455;-56
2021/12/11 03:33:26;;;;;;;30.40;16.67;;;-0.90;99.70;;;;;;4991790;28;20451;-58
2021/12/11 03:35:55;;;;;;;31.83;17.00;;;-0.90;99.90;;;;;;4991741;28;20451;-56
2021/12/11 03:38:22;;;;;;;41.33;17.50;;;-1.00;99.90;;;;;;4991715;28;20550;-53
2021/12/11 03:40:50;;;;;;;41.03;18.03;;;-1.00;99.90;;;;;;4991929;28;20455;-58
2021/12/11 03:43:21;;;;;;;39.77;18.53;;;-1.00;99.90;;;;;;4991568;28;20482;-56
2021/12/11 03:45:52;;;;;;;42.20;18.60;;;-0.90;99.90;;;;;;4991356;28;20990;-59
2021/12/11 03:48:23;;;;;;;51.73;19.20;;;-1.00;99.90;;;;;;4991696;28;20489;-54
2021/12/11 03:50:50;;;;;;;63.63;18.67;;;-1.00;99.90;;;;;;4991693;28;20993;-56
2021/12/11 03:53:18;;;;;;;82.97;21.17;;;-1.00;99.90;;;;;;4991149;28;20931;-55
2021/12/11 03:55:49;;;;;;;60.93;19.43;;;-0.90;99.90;;;;;;4991649;28;20528;-57
2021/12/11 03:58:18;;;;;;;81.23;19.17;;;-0.90;99.90;;;;;;4991449;28;20997;-55
2021/12/11 04:00:49;;;;;;;82.77;22.63;;;-0.90;99.90;;;;;;4991476;28;20454;-58
2021/12/11 04:03:18;;;;;;;43.03;18.50;;;-0.90;99.90;;;;;;4990917;28;20490;-57
2021/12/11 04:05:48;;;;;;;54.00;21.73;;;-0.90;99.90;;;;;;4991213;28;20471;-56
2021/12/11 04:08:17;;;;;;;56.30;21.13;;;-1.00;99.90;;;;;;4991504;28;20451;-55
2021/12/11 04:10:44;;;;;;;55.93;21.63;;;-1.00;99.90;;;;;;4991537;28;20451;-56
2021/12/11 04:13:13;;;;;;;72.93;22.57;;;-1.00;99.90;;;;;;4991116;28;20451;-57
2021/12/11 04:15:43;;;;;;;59.30;21.03;;;-0.90;99.90;;;;;;4991167;28;20479;-57
2021/12/11 04:18:10;;;;;;;54.73;20.63;;;-1.00;99.90;;;;;;4990994;28;20469;-58
2021/12/11 04:20:39;;;;;;;65.97;22.17;;;-1.00;99.90;;;;;;4991357;28;20451;-57
2021/12/11 04:23:07;;;;;;;62.33;22.13;;;-1.00;99.90;;;;;;4990803;28;20487;-57
2021/12/11 04:25:35;;;;;;;49.13;22.13;;;-1.00;99.90;;;;;;4991020;28;20528;-54
2021/12/11 04:28:01;;;;;;;51.73;20.93;;;-1.10;99.90;;;;;;4991144;28;20886;-57
2021/12/11 04:30:29;;;;;;;48.83;20.13;;;-1.10;99.90;;;;;;4990912;28;20538;-58
2021/12/11 04:32:58;;;;;;;47.87;21.70;;;-1.20;99.90;;;;;;4990834;28;20545;-57
2021/12/11 04:35:28;;;;;;;38.60;19.20;;;-1.10;99.90;;;;;;4991097;28;20532;-57
2021/12/11 04:37:55;;;;;;;43.80;17.90;;;-1.20;99.90;;;;;;4991198;28;20558;-57
2021/12/11 04:40:28;;;;;;;54.27;21.40;;;-1.10;99.90;;;;;;4990360;28;20461;-57
2021/12/11 04:43:00;;;;;;;41.20;20.77;;;-1.20;99.90;;;;;;4990309;28;21043;-56
2021/12/11 04:45:34;;;;;;;45.73;20.47;;;-1.20;99.90;;;;;;4990684;28;20487;-58
2021/12/11 04:48:10;;;;;;;41.23;17.60;;;-1.20;99.90;;;;;;4990871;28;20454;-56
2021/12/11 04:50:46;;;;;;;50.23;21.23;;;-1.20;99.90;;;;;;4990871;28;20450;-58
2021/12/11 04:53:29;;;;;;;49.47;22.17;;;-1.20;99.90;;;;;;4990242;28;20455;-53
2021/12/11 04:56:16;;;;;;;47.50;19.20;;;-1.20;99.90;;;;;;4990958;28;20454;-55
2021/12/11 04:58:58;;;;;;;46.17;19.90;;;-1.20;99.90;;;;;;4990751;28;20466;-58
2021/12/11 05:01:44;;;;;;;50.70;21.70;;;-1.40;99.90;;;;;;4990256;28;20943;-58
2021/12/11 05:04:33;;;;;;;55.23;22.43;;;-1.40;99.90;;;;;;4990425;28;20517;-58
2021/12/11 05:07:05;;;;;;;55.37;23.10;;;-1.40;99.90;;;;;;4991135;28;20462;-58
2021/12/11 05:09:39;;;;;;;47.53;21.67;;;-1.40;99.90;;;;;;4990606;28;20455;-56
2021/12/11 05:12:17;;;;;;;58.67;23.30;;;-1.40;99.90;;;;;;4989993;28;20498;-58
2021/12/11 05:14:45;;;;;;;69.50;26.33;;;-1.40;99.90;;;;;;4990224;28;20509;-55
2021/12/11 05:17:13;;;;;;;53.93;23.60;;;-1.40;99.90;;;;;;4990368;28;21016;-58
2021/12/11 05:19:43;;;;;;;64.07;25.67;;;-1.40;99.90;;;;;;4990343;28;20450;-58
2021/12/11 05:22:12;;;;;;;62.60;26.37;;;-1.40;99.90;;;;;;4990054;28;20462;-58
2021/12/11 05:24:41;;;;;;;63.10;24.57;;;-1.40;99.90;;;;;;4990117;28;20489;-58
2021/12/11 05:27:08;;;;;;;61.37;24.67;;;-1.40;99.90;;;;;;4990086;28;20459;-57
2021/12/11 05:29:36;;;;;;;60.97;25.40;;;-1.40;99.90;;;;;;4990418;28;20527;-56
2021/12/11 05:32:06;;;;;;;67.33;24.63;;;-1.40;99.90;;;;;;4989789;28;20501;-57
2021/12/11 05:34:33;;;;;;;84.13;26.63;;;-1.40;99.90;;;;;;4990406;28;20878;-57
2021/12/11 05:37:01;;;;;;;85.00;26.67;;;-1.40;99.90;;;;;;4990521;28;20507;-58
2021/12/11 05:39:29;;;;;;;118.33;29.13;;;-1.30;99.90;;;;;;4990135;28;20462;-58
2021/12/11 05:41:56;;;;;;;82.93;26.30;;;-1.30;99.90;;;;;;4990002;28;20860;-58
2021/12/11 05:44:24;;;;;;;94.10;28.10;;;-1.20;99.90;;;;;;4989856;28;20546;-57
2021/12/11 05:46:52;;;;;;;91.80;30.20;;;-1.20;99.90;;;;;;4989883;28;20528;-58
2021/12/11 05:49:19;;;;;;;87.43;31.23;;;-1.20;99.90;;;;;;4990193;28;20451;-54
2021/12/11 05:51:48;;;;;;;92.20;32.77;;;-1.10;99.90;;;;;;4988454;28;20439;-56
2021/12/11 05:54:22;;;;;;;81.87;29.13;;;-1.00;99.90;;;;;;4989866;28;20520;-58
2021/12/11 05:56:51;;;;;;;77.37;28.83;;;-1.00;99.90;;;;;;4990005;28;20935;-57
2021/12/11 05:59:18;;;;;;;86.93;29.00;;;-0.90;99.90;;;;;;4989884;28;20474;-58
2021/12/11 06:01:48;;;;;;;77.60;29.30;;;-0.90;99.90;;;;;;4989483;28;20508;-54
2021/12/11 06:04:18;;;;;;;79.00;27.23;;;-0.80;99.90;;;;;;4989363;28;20494;-56
2021/12/11 06:06:47;;;;;;;85.87;25.90;;;-0.80;99.90;;;;;;4989853;28;20451;-57
2021/12/11 06:09:18;;;;;;;72.80;24.77;;;-0.70;99.90;;;;;;4989816;28;20454;-58
2021/12/11 06:11:48;;;;;;;75.43;27.83;;;-0.70;99.90;;;;;;4989535;28;20504;-54
2021/12/11 06:14:16;;;;;;;78.43;27.80;;;-0.60;99.90;;;;;;4989726;28;20558;-56
2021/12/11 06:16:43;;;;;;;87.80;25.30;;;-0.70;99.90;;;;;;4989526;28;20819;-58
2021/12/11 06:19:10;;;;;;;89.57;27.93;;;-0.60;99.90;;;;;;4989661;28;20520;-58
2021/12/11 06:21:37;;;;;;;86.20;29.30;;;-0.60;99.90;;;;;;4989177;28;20458;-56
2021/12/11 06:24:05;;;;;;;93.10;30.27;;;-0.60;99.90;;;;;;4989485;28;20487;-56
2021/12/11 06:26:34;;;;;;;110.60;31.33;;;-0.50;99.90;;;;;;4989319;28;20480;-55
2021/12/11 06:29:00;;;;;;;100.60;32.27;;;-0.50;99.90;;;;;;4989312;28;20458;-57
2021/12/11 06:31:27;;;;;;;100.70;30.63;;;-0.50;99.90;;;;;;4988994;28;20816;-56
2021/12/11 06:33:55;;;;;;;112.00;32.90;;;-0.40;99.90;;;;;;4989428;28;20463;-58
2021/12/11 06:36:23;;;;;;;105.33;31.30;;;-0.40;99.90;;;;;;4989361;28;20477;-58
2021/12/11 06:38:53;;;;;;;108.70;34.03;;;-0.40;99.90;;;;;;4989298;28;20500;-57
2021/12/11 06:41:25;;;;;;;125.67;34.83;;;-0.40;99.90;;;;;;4988864;28;20462;-55
2021/12/11 06:43:54;;;;;;;122.63;35.83;;;-0.30;99.90;;;;;;4988906;28;20498;-56
2021/12/11 06:46:21;;;;;;;111.90;37.13;;;-0.30;99.90;;;;;;4989518;28;20455;-56
2021/12/11 06:48:48;;;;;;;110.30;30.50;;;-0.30;99.90;;;;;;4989202;28;20455;-51
2021/12/11 06:51:15;;;;;;;126.63;36.80;;;-0.30;99.90;;;;;;4989141;28;20500;-55
2021/12/11 06:53:46;;;;;;;123.47;35.67;;;-0.30;99.90;;;;;;4989031;28;21076;-57
2021/12/11 06:56:16;;;;;;;133.33;37.13;;;-0.20;99.90;;;;;;4989012;28;20882;-57
2021/12/11 06:58:43;;;;;;;110.07;34.47;;;-0.20;99.90;;;;;;4988849;28;20512;-57
2021/12/11 07:01:12;;;;;;;120.23;36.90;;;-0.20;99.90;;;;;;4988511;28;20939;-55
2021/12/11 07:03:40;;;;;;;129.33;35.20;;;-0.20;99.90;;;;;;4990914;28;20535;-55
2021/12/11 07:06:08;;;;;;;122.23;36.53;;;-0.20;1.00;;;;;;4992248;28;20955;-57
2021/12/11 07:08:36;;;;;;;121.33;37.27;;;-0.10;1.00;;;;;;4992511;28;20451;-57
2021/12/11 07:11:03;;;;;;;144.67;38.10;;;-0.10;1.00;;;;;;4992102;28;20458;-57
2021/12/11 07:13:30;;;;;;;132.10;38.20;;;-0.10;1.00;;;;;;4992194;28;20481;-56
2021/12/11 07:15:58;;;;;;;128.07;38.77;;;-0.10;1.00;;;;;;4992255;28;20534;-55
2021/12/11 07:18:28;;;;;;;144.97;38.07;;;0.00;1.00;;;;;;4992177;28;20485;-55
2021/12/11 07:20:55;;;;;;;153.57;40.40;;;0.00;1.00;;;;;;4992262;28;20487;-59
2021/12/11 07:23:22;;;;;;;130.37;36.63;;;0.00;1.00;;;;;;4991281;28;20524;-57
2021/12/11 07:25:53;;;;;;;133.50;37.80;;;0.10;1.00;;;;;;4992302;28;20478;-56
2021/12/11 07:28:21;;;;;;;158.30;40.90;;;0.10;1.00;;;;;;4991899;28;20453;-56
2021/12/11 07:30:50;;;;;;;140.00;38.90;;;0.00;1.00;;;;;;4992293;28;20455;-57
2021/12/11 07:33:17;;;;;;;146.47;40.50;;;0.10;1.00;;;;;;4991598;28;20447;-55
2021/12/11 07:35:47;;;;;;;152.33;37.77;;;0.10;1.00;;;;;;4991865;28;20475;-54
2021/12/11 07:38:14;;;;;;;135.87;37.70;;;0.20;1.00;;;;;;4991697;28;20486;-58
2021/12/11 07:40:45;;;;;;;157.27;39.53;;;0.20;1.00;;;;;;4991849;28;20455;-57
2021/12/11 07:43:13;;;;;;;146.87;37.67;;;0.20;1.00;;;;;;4991241;28;20447;-53
2021/12/11 07:45:40;;;;;;;137.27;37.93;;;0.20;1.00;;;;;;4991820;28;21060;-57
2021/12/11 07:48:07;;;;;;;151.77;40.93;;;0.20;1.00;;;;;;4991607;28;20462;-56
2021/12/11 07:50:34;;;;;;;141.40;40.50;;;0.30;1.00;;;;;;4991371;28;20455;-57
2021/12/11 07:53:03;;;;;;;163.90;43.40;;;0.30;1.00;;;;;;4991433;28;20447;-58
2021/12/11 07:55:32;;;;;;;169.10;39.97;;;0.30;1.00;;;;;;4991626;28;20933;-56
2021/12/11 07:57:59;;;;;;;165.73;40.77;;;0.30;1.00;;;;;;4991681;28;20847;-57
2021/12/11 08:00:28;;;;;;;154.10;40.33;;;0.30;1.00;;;;;;4991692;28;20455;-57
2021/12/11 08:02:55;;;;;;;161.63;40.03;;;0.30;1.00;;;;;;4991023;28;20450;-54
2021/12/11 08:05:27;;;;;;;157.27;39.00;;;0.30;1.00;;;;;;4990971;28;20521;-58
2021/12/11 08:07:54;;;;;;;144.30;36.40;;;0.30;1.00;;;;;;4991001;28;20447;-54
2021/12/11 08:10:24;;;;;;;163.77;41.20;;;0.30;1.00;;;;;;4991604;28;20451;-56
2021/12/11 08:12:51;;;;;;;158.27;39.87;;;0.30;1.00;;;;;;4991148;28;20868;-56
2021/12/11 08:15:18;;;;;;;170.33;41.97;;;0.30;1.00;;;;;;4990402;28;20474;-58
2021/12/11 08:17:51;;;;;;;164.83;41.00;;;0.40;1.00;;;;;;4990824;28;20450;-58
2021/12/11 08:20:17;;;;;;;147.03;37.77;;;0.30;1.00;;;;;;4991256;28;20459;-58
2021/12/11 08:22:44;;;;;;;154.73;40.60;;;0.40;1.00;;;;;;4990487;28;20484;-58
2021/12/11 08:25:11;;;;;;;157.90;39.60;;;0.40;1.00;;;;;;4990808;28;20516;-58
2021/12/11 08:27:41;;;;;;;169.57;39.27;;;0.30;1.00;;;;;;4991311;28;20455;-58
2021/12/11 08:30:09;;;;;;;174.90;40.33;;;0.40;1.00;;;;;;4990611;28;20455;-57
2021/12/11 08:32:36;;;;;;;143.20;35.83;;;0.40;1.00;;;;;;4990729;28;20450;-57
2021/12/11 08:35:04;;;;;;;158.20;38.87;;;0.50;1.00;;;;;;4990836;28;20520;-58
2021/12/11 08:37:31;;;;;;;150.60;37.40;;;0.50;1.00;;;;;;4990800;28;20462;-56
2021/12/11 08:39:58;;;;;;;156.53;38.00;;;0.60;1.00;;;;;;4990873;28;20879;-58
2021/12/11 08:42:27;;;;;;;163.70;38.40;;;0.60;1.00;;;;;;4990488;28;20455;-58
2021/12/11 08:45:05;;;;;;;161.43;37.97;;;0.60;1.00;;;;;;4990971;28;20503;-55
2021/12/11 08:47:32;;;;;;;148.37;37.30;;;0.60;1.00;;;;;;4991167;28;20504;-59
2021/12/11 08:49:59;;;;;;;174.83;38.93;;;0.60;1.00;;;;;;4991043;28;20447;-59
2021/12/11 08:52:29;;;;;;;167.67;40.10;;;0.60;1.00;;;;;;4989994;28;20562;-56
2021/12/11 08:54:56;;;;;;;159.90;38.07;;;0.60;1.00;;;;;;4990912;28;20495;-59
2021/12/11 08:57:25;;;;;;;146.93;36.63;;;0.60;1.00;;;;;;4990411;28;20458;-58
2021/12/11 08:59:57;;;;;;;163.07;37.23;;;0.70;1.00;;;;;;4990660;28;20496;-58
2021/12/11 09:02:28;;;;;;;164.97;37.57;;;0.70;1.00;;;;;;4987717;28;20455;-58
2021/12/11 09:05:04;;;;;;;155.93;38.60;;;0.70;1.00;;;;;;4990429;28;20486;-57
2021/12/11 09:07:36;;;;;;;159.60;36.87;;;0.70;1.00;;;;;;4991014;28;20537;-57
2021/12/11 09:10:08;;;;;;;139.53;39.37;;;0.80;1.00;;;;;;4990900;28;20459;-58
2021/12/11 09:12:39;;;;;;;155.97;37.20;;;0.80;1.00;;;;;;4990358;28;20513;-56
2021/12/11 09:15:12;;;;;;;162.77;35.97;;;0.90;1.00;;;;;;4991159;28;20516;-59
2021/12/11 09:17:46;;;;;;;149.43;35.17;;;0.90;1.00;;;;;;4990088;28;20452;-57
2021/12/11 09:20:19;;;;;;;159.47;36.20;;;1.00;1.00;;;;;;4990095;28;20455;-58
2021/12/11 09:22:50;;;;;;;161.00;35.97;;;1.10;1.00;;;;;;4989567;28;20452;-59
2021/12/11 09:25:24;;;;;;;156.43;40.07;;;1.10;1.00;;;;;;4991564;28;21064;-62
2021/12/11 09:27:58;;;;;;;187.13;39.33;;;1.20;1.00;;;;;;4989906;28;20464;-60
2021/12/11 09:30:31;;;;;;;182.30;40.60;;;1.20;1.00;;;;;;4989605;28;20458;-59
2021/12/11 09:33:02;;;;;;;176.17;39.73;;;1.30;1.00;;;;;;4989657;28;20529;-59
2021/12/11 09:35:32;;;;;;;163.87;41.10;;;1.40;1.00;;;;;;4989837;28;20480;-57
2021/12/11 09:38:05;;;;;;;179.63;41.90;;;1.40;1.00;;;;;;4990101;28;20816;-59
2021/12/11 09:40:52;;;;;;;181.07;39.63;;;1.50;1.00;;;;;;4989822;28;20461;-58
2021/12/11 09:43:34;;;;;;;163.93;39.73;;;1.60;1.00;;;;;;4989387;28;20458;-58
2021/12/11 09:46:01;;;;;;;173.40;41.37;;;1.60;1.00;;;;;;4989733;28;20496;-59
2021/12/11 09:48:28;;;;;;;178.83;39.67;;;1.70;1.00;;;;;;4990060;28;20462;-57
2021/12/11 09:51:02;;;;;;;174.20;40.70;;;1.70;1.00;;;;;;4989981;28;20957;-58
2021/12/11 09:53:34;;;;;;;160.13;38.93;;;1.70;1.00;;;;;;4989190;28;20546;-58
2021/12/11 09:56:01;;;;;;;182.73;42.43;;;1.70;1.00;;;;;;4990036;28;20462;-59
2021/12/11 09:58:34;;;;;;;159.57;39.57;;;1.80;1.00;;;;;;4989466;28;20448;-57
2021/12/11 10:01:04;;;;;;;192.37;41.90;;;1.80;1.00;;;;;;4982178;28;20461;-57
2021/12/11 10:03:34;;;;;;;173.17;41.20;;;1.80;1.00;;;;;;4989142;28;20459;-62
2021/12/11 10:06:12;;;;;;;179.97;42.03;;;1.90;1.00;;;;;;4988969;28;20514;-61
2021/12/11 10:08:42;;;;;;;180.03;40.60;;;1.90;1.00;;;;;;4989435;28;20461;-60
2021/12/11 10:11:13;;;;;;;156.17;37.57;;;2.00;1.00;;;;;;4988343;28;20484;-59
2021/12/11 10:13:44;;;;;;;186.30;41.50;;;2.00;1.00;;;;;;4989665;28;20511;-56
2021/12/11 10:16:13;;;;;;;177.43;41.53;;;2.10;1.00;;;;;;4988349;28;20458;-55
2021/12/11 10:18:41;;;;;;;173.60;41.23;;;2.00;1.00;;;;;;4988776;28;20512;-55
2021/12/11 10:21:14;;;;;;;179.17;41.17;;;2.00;1.00;;;;;;4988617;28;20454;-57
2021/12/11 10:23:43;;;;;;;167.63;40.93;;;2.00;1.00;;;;;;4989058;28;20951;-56
2021/12/11 10:26:13;;;;;;;174.93;43.57;;;2.10;1.00;;;;;;4988916;28;20517;-57
2021/12/11 10:28:44;;;;;;;167.43;42.00;;;2.20;1.00;;;;;;4989186;28;20465;-59
2021/12/11 10:31:14;;;;;;;166.33;39.00;;;2.10;1.00;;;;;;4988413;28;20455;-59
2021/12/11 10:33:41;;;;;;;156.20;39.30;;;2.20;1.00;;;;;;4989112;28;20454;-59
2021/12/11 10:36:12;;;;;;;145.80;36.23;;;2.20;1.00;;;;;;4989025;28;20447;-58
2021/12/11 10:38:39;;;;;;;146.70;37.60;;;2.20;1.00;;;;;;4991084;28;20458;-58
2021/12/11 10:41:10;;;;;;;142.70;37.33;;;2.30;1.00;;;;;;4992185;28;20819;-58
2021/12/11 10:43:46;;;;;;;148.00;37.83;;;2.40;1.00;;;;;;4991840;28;20939;-58
2021/12/11 10:46:16;;;;;;;140.57;36.67;;;2.40;1.00;;;;;;4992303;28;20493;-58
2021/12/11 10:48:44;;;;;;;133.57;35.73;;;2.30;1.00;;;;;;4992149;28;20450;-58
2021/12/11 10:51:15;;;;;;;135.03;36.83;;;2.50;1.00;;;;;;4991492;28;20508;-58
2021/12/11 10:53:46;;;;;;;123.97;34.13;;;2.40;1.00;;;;;;4992009;28;20886;-58
2021/12/11 10:56:15;;;;;;;124.93;34.27;;;2.50;1.00;;;;;;4992010;28;20446;-58
2021/12/11 10:58:45;;;;;;;124.30;34.07;;;2.40;1.00;;;;;;4992052;28;21027;-58
2021/12/11 11:01:16;;;;;;;124.17;31.90;;;2.50;1.00;;;;;;4991585;28;20507;-56
2021/12/11 11:03:47;;;;;;;120.40;32.70;;;2.60;1.00;;;;;;4991912;28;20447;-58
2021/12/11 11:06:14;;;;;;;99.70;31.43;;;2.40;1.00;;;;;;4991784;28;20524;-58
2021/12/11 11:08:41;;;;;;;114.47;31.67;;;2.40;1.00;;;;;;4992366;28;20459;-58
2021/12/11 11:11:12;;;;;;;121.43;31.80;;;2.30;1.00;;;;;;4991444;28;20942;-59
2021/12/11 11:13:40;;;;;;;105.67;31.67;;;2.30;1.00;;;;;;4991964;28;20462;-58
2021/12/11 11:16:08;;;;;;;92.50;29.30;;;2.30;1.00;;;;;;4991623;28;20864;-59
2021/12/11 11:18:36;;;;;;;97.00;30.33;;;2.40;1.00;;;;;;4991563;28;20939;-58
2021/12/11 11:21:07;;;;;;;98.77;30.30;;;2.40;1.00;;;;;;4991468;28;21024;-59
2021/12/11 11:23:34;;;;;;;89.43;29.87;;;2.50;1.00;;;;;;4991141;28;20462;-62
2021/12/11 11:26:04;;;;;;;88.83;30.70;;;2.50;1.00;;;;;;4991111;28;20491;-61
2021/12/11 11:28:33;;;;;;;88.37;28.47;;;2.50;99.90;;;;;;4991847;28;20454;-61
2021/12/11 11:31:04;;;;;;;86.03;27.33;;;2.50;99.90;;;;;;4991279;28;20542;-58
2021/12/11 11:33:32;;;;;;;78.87;27.07;;;2.60;99.90;;;;;;4991545;28;20432;-56
2021/12/11 11:36:03;;;;;;;92.80;28.23;;;2.60;99.90;;;;;;4991687;28;20504;-54
2021/12/11 11:38:34;;;;;;;78.97;27.40;;;2.50;99.90;;;;;;4991863;28;20541;-61
2021/12/11 11:41:05;;;;;;;84.83;28.47;;;2.50;99.90;;;;;;4991596;28;20458;-57
2021/12/11 11:43:31;;;;;;;80.13;28.20;;;2.50;99.90;;;;;;4991622;28;20508;-58
2021/12/11 11:45:58;;;;;;;71.00;26.10;;;2.50;99.90;;;;;;4990317;28;20501;-60
2021/12/11 11:48:28;;;;;;;76.37;26.63;;;2.50;99.90;;;;;;4991604;28;20458;-58
2021/12/11 11:50:57;;;;;;;73.77;27.57;;;2.50;99.90;;;;;;4989927;28;20451;-61
2021/12/11 11:53:25;;;;;;;72.07;26.27;;;2.60;99.90;;;;;;4991216;28;20465;-59
2021/12/11 11:55:56;;;;;;;73.23;27.03;;;2.60;99.90;;;;;;4991168;28;20471;-61
2021/12/11 11:58:23;;;;;;;70.97;25.63;;;2.50;99.90;;;;;;4990932;28;20824;-59
2021/12/11 12:00:53;;;;;;;77.53;26.30;;;2.60;99.90;;;;;;4991131;28;20458;-59
2021/12/11 12:03:25;;;;;;;71.33;26.33;;;2.60;99.90;;;;;;4990368;28;20812;-57
2021/12/11 12:05:55;;;;;;;82.20;28.03;;;2.60;99.90;;;;;;4991166;28;20583;-59
2021/12/11 12:08:21;;;;;;;81.33;28.73;;;2.60;99.90;;;;;;4991675;28;20921;-61
2021/12/11 12:10:52;;;;;;;71.93;26.10;;;2.60;99.90;;;;;;4991844;28;20459;-58
2021/12/11 12:13:22;;;;;;;73.13;26.03;;;2.60;99.90;;;;;;4990525;28;20470;-60
2021/12/11 12:15:51;;;;;;;76.23;25.23;;;2.60;99.90;;;;;;4990981;28;20475;-58
2021/12/11 12:18:20;;;;;;;69.37;26.30;;;2.60;99.90;;;;;;4991196;28;20871;-57
2021/12/11 12:20:48;;;;;;;68.60;26.77;;;2.70;99.90;;;;;;4990719;28;21005;-58
2021/12/11 12:23:19;;;;;;;70.23;26.07;;;2.70;99.90;;;;;;4990302;28;20519;-56
2021/12/11 12:25:46;;;;;;;75.53;26.77;;;2.70;99.90;;;;;;4990452;28;20817;-57
2021/12/11 12:28:15;;;;;;;66.90;25.70;;;2.80;99.90;;;;;;4991078;28;20447;-57
2021/12/11 12:30:46;;;;;;;64.27;24.47;;;2.80;99.90;;;;;;4990338;28;20893;-51
2021/12/11 12:33:16;;;;;;;68.93;25.43;;;2.90;99.90;;;;;;4990509;28;20463;-55
2021/12/11 12:35:44;;;;;;;67.80;26.83;;;2.90;99.90;;;;;;4990559;28;20467;-55
2021/12/11 12:38:14;;;;;;;75.63;27.77;;;2.90;99.90;;;;;;4990318;28;20451;-57
2021/12/11 12:40:48;;;;;;;64.83;24.73;;;2.90;99.90;;;;;;4990521;28;20455;-58
2021/12/11 12:43:43;;;;;;;67.63;24.87;;;2.90;99.90;;;;;;4994066;28;20465;-57
2021/12/11 12:46:08;;;;;;;63.13;24.57;;;3.00;99.90;;;;;;4989197;28;20479;-59
2021/12/11 12:48:35;;;;;;;65.87;25.67;;;3.00;99.90;;;;;;4989028;28;20489;-58